createdAt,value
2023-01-22T00:01:31.825Z,100.00
2023-01-22T00:04:00.643Z,100.00
2023-01-22T00:06:28.995Z,100.00
2023-01-22T00:08:57.368Z,100.00
2023-01-22T00:11:25.687Z,100.00
2023-01-22T00:13:55.361Z,100.00
2023-01-22T00:16:23.719Z,100.00
2023-01-22T00:18:52.040Z,100.00
2023-01-22T00:21:20.384Z,100.00
2023-01-22T00:23:48.697Z,100.00
2023-01-22T00:26:18.377Z,100.00
2023-01-22T00:28:46.785Z,100.00
2023-01-22T00:31:17.613Z,100.00
2023-01-22T00:33:47.491Z,100.00
2023-01-22T00:36:17.822Z,100.00
2023-01-22T00:38:46.326Z,100.00
2023-01-22T00:41:15.574Z,100.00
2023-01-22T00:43:44.145Z,100.00
2023-01-22T00:46:15.012Z,100.00
2023-01-22T00:48:46.345Z,98.48
2023-01-22T00:51:15.729Z,100.00
2023-01-22T00:53:44.766Z,100.00
2023-01-22T00:56:14.852Z,100.00
2023-01-22T00:58:43.668Z,100.00
2023-01-22T01:01:13.728Z,100.00
2023-01-22T01:03:42.283Z,100.00
2023-01-22T01:06:16.025Z,100.00
2023-01-22T01:08:44.931Z,100.00
2023-01-22T01:11:14.928Z,100.00
2023-01-22T01:13:44.695Z,100.00
2023-01-22T01:16:15.318Z,100.00
2023-01-22T01:18:43.679Z,100.00
2023-01-22T01:21:13.629Z,100.00
2023-01-22T01:23:42.731Z,100.00
2023-01-22T01:26:12.285Z,100.00
2023-01-22T01:28:41.589Z,100.00
2023-01-22T01:31:12.429Z,96.08
2023-01-22T01:33:41.652Z,94.00
2023-01-22T01:36:15.160Z,96.42
2023-01-22T01:38:43.973Z,93.84
2023-01-22T01:41:13.856Z,93.05
2023-01-22T01:43:42.333Z,100.00
2023-01-22T01:46:17.598Z,100.00
2023-01-22T01:48:47.995Z,100.00
2023-01-22T01:51:21.733Z,100.00
2023-01-22T01:53:51.164Z,100.00
2023-01-22T01:56:22.574Z,98.10
2023-01-22T01:58:52.455Z,99.72
2023-01-22T02:01:21.343Z,100.00
2023-01-22T02:03:50.828Z,100.00
2023-01-22T02:06:21.148Z,100.00
2023-01-22T02:08:50.534Z,100.00
2023-01-22T02:11:20.844Z,100.00
2023-01-22T02:13:51.504Z,100.00
2023-01-22T02:16:19.999Z,100.00
2023-01-22T02:18:48.300Z,100.00
2023-01-22T02:21:32.183Z,100.00
2023-01-22T02:24:00.888Z,100.00
2023-01-22T02:26:29.392Z,100.00
2023-01-22T02:28:57.807Z,100.00
2023-01-22T02:31:26.125Z,100.00
2023-01-22T02:33:54.653Z,100.00
2023-01-22T02:36:23.042Z,100.00
2023-01-22T02:38:52.748Z,100.00
2023-01-22T02:41:21.285Z,100.00
2023-01-22T02:43:49.580Z,100.00
2023-01-22T02:46:18.045Z,100.00
2023-01-22T02:48:46.323Z,100.00
2023-01-22T02:51:14.689Z,100.00
2023-01-22T02:53:43.013Z,100.00
2023-01-22T02:56:13.217Z,100.00
2023-01-22T02:58:41.527Z,100.00
2023-01-22T03:01:19.002Z,100.00
2023-01-22T03:03:47.910Z,100.00
2023-01-22T03:06:21.402Z,100.00
2023-01-22T03:08:49.857Z,100.00
2023-01-22T03:11:19.783Z,100.00
2023-01-22T03:14:05.798Z,100.00
2023-01-22T03:16:52.318Z,100.00
2023-01-22T03:19:38.863Z,100.00
2023-01-22T03:22:07.726Z,100.00
2023-01-22T03:24:36.180Z,100.00
2023-01-22T03:27:06.125Z,100.00
2023-01-22T03:29:38.576Z,100.00
2023-01-22T03:32:07.479Z,100.00
2023-01-22T03:34:36.815Z,100.00
2023-01-22T03:37:05.211Z,100.00
2023-01-22T03:39:33.916Z,100.00
2023-01-22T03:42:02.272Z,100.00
2023-01-22T03:44:32.020Z,100.00
2023-01-22T03:47:00.520Z,100.00
2023-01-22T03:49:28.858Z,100.00
2023-01-22T03:51:57.290Z,100.00
2023-01-22T03:54:25.609Z,100.00
2023-01-22T03:56:53.872Z,100.00
2023-01-22T03:59:22.322Z,100.00
2023-01-22T04:01:53.671Z,100.00
2023-01-22T04:04:22.092Z,100.00
2023-01-22T04:06:50.393Z,99.74
2023-01-22T04:09:18.840Z,97.39
2023-01-22T04:11:47.477Z,92.77
2023-01-22T04:14:15.968Z,91.13
2023-01-22T04:16:44.336Z,89.92
2023-01-22T04:19:14.775Z,88.89
2023-01-22T04:21:43.047Z,87.64
2023-01-22T04:24:11.395Z,87.01
2023-01-22T04:26:39.659Z,87.02
2023-01-22T04:29:07.981Z,88.20
2023-01-22T04:31:36.316Z,86.68
2023-01-22T04:34:04.686Z,86.36
2023-01-22T04:36:34.330Z,85.53
2023-01-22T04:39:02.784Z,85.23
2023-01-22T04:41:31.065Z,86.99
2023-01-22T04:43:59.351Z,86.78
2023-01-22T04:46:27.752Z,86.48
2023-01-22T04:48:56.040Z,85.41
2023-01-22T04:51:24.394Z,85.40
2023-01-22T04:53:54.047Z,84.41
2023-01-22T04:56:22.287Z,84.81
2023-01-22T04:58:50.645Z,85.31
2023-01-22T05:01:18.953Z,84.60
2023-01-22T05:03:47.188Z,83.59
2023-01-22T05:06:15.419Z,82.72
2023-01-22T05:08:43.658Z,81.23
2023-01-22T05:11:13.240Z,80.18
2023-01-22T05:13:42.012Z,80.96
2023-01-22T05:16:10.358Z,79.92
2023-01-22T05:18:38.633Z,78.96
2023-01-22T05:21:07.161Z,77.13
2023-01-22T05:23:35.429Z,78.48
2023-01-22T05:26:03.670Z,82.34
2023-01-22T05:28:33.286Z,84.96
2023-01-22T05:31:01.653Z,86.93
2023-01-22T05:33:30.165Z,88.20
2023-01-22T05:35:58.612Z,92.78
2023-01-22T05:38:27.396Z,91.57
2023-01-22T05:40:55.809Z,91.77
2023-01-22T05:43:24.351Z,91.61
2023-01-22T05:45:54.010Z,90.43
2023-01-22T05:48:22.336Z,84.84
2023-01-22T05:50:50.716Z,84.83
2023-01-22T05:53:18.963Z,87.69
2023-01-22T05:55:47.269Z,85.73
2023-01-22T05:58:15.590Z,85.49
2023-01-22T06:00:43.921Z,83.56
2023-01-22T06:03:13.541Z,84.01
2023-01-22T06:05:41.795Z,87.64
2023-01-22T06:08:10.069Z,83.80
2023-01-22T06:10:38.369Z,83.74
2023-01-22T06:13:06.654Z,84.61
2023-01-22T06:15:35.028Z,80.56
2023-01-22T06:18:04.763Z,83.85
2023-01-22T06:20:34.428Z,84.02
2023-01-22T06:23:02.693Z,82.00
2023-01-22T06:25:31.182Z,86.08
2023-01-22T06:27:59.411Z,85.46
2023-01-22T06:30:27.677Z,85.16
2023-01-22T06:32:55.962Z,85.59
2023-01-22T06:35:24.286Z,85.54
2023-01-22T06:37:54.266Z,86.42
2023-01-22T06:40:22.522Z,84.69
2023-01-22T06:42:50.791Z,82.49
2023-01-22T06:45:19.102Z,87.06
2023-01-22T06:47:47.800Z,86.70
2023-01-22T06:50:16.985Z,87.21
2023-01-22T06:52:45.491Z,79.65
2023-01-22T06:55:15.288Z,77.63
2023-01-22T06:57:43.576Z,74.46
2023-01-22T07:00:12.552Z,74.41
2023-01-22T07:02:42.576Z,76.72
2023-01-22T07:05:11.083Z,78.18
2023-01-22T07:07:39.368Z,82.88
2023-01-22T07:10:08.254Z,78.78
2023-01-22T07:12:37.916Z,81.91
2023-01-22T07:15:07.928Z,79.51
2023-01-22T07:17:37.452Z,78.04
2023-01-22T07:20:06.494Z,73.88
2023-01-22T07:22:34.835Z,74.15
2023-01-22T07:25:03.199Z,95.37
2023-01-22T07:27:32.587Z,100.00
2023-01-22T07:30:04.124Z,100.00
2023-01-22T07:32:32.397Z,100.00
2023-01-22T07:35:00.680Z,100.00
2023-01-22T07:37:28.922Z,100.00
2023-01-22T07:39:57.219Z,100.00
2023-01-22T07:42:25.498Z,91.67
2023-01-22T07:44:53.756Z,85.44
2023-01-22T07:47:23.383Z,83.41
2023-01-22T07:49:51.635Z,81.25
2023-01-22T07:52:21.201Z,79.28
2023-01-22T07:54:49.505Z,73.53
2023-01-22T07:57:18.695Z,72.41
2023-01-22T07:59:47.073Z,77.39
2023-01-22T08:02:16.371Z,75.39
2023-01-22T08:04:46.157Z,71.87
2023-01-22T08:07:17.024Z,75.15
2023-01-22T08:09:45.397Z,79.35
2023-01-22T08:12:13.663Z,95.25
2023-01-22T08:14:42.069Z,82.14
2023-01-22T08:17:10.548Z,81.20
2023-01-22T08:19:38.825Z,78.93
2023-01-22T08:22:08.673Z,79.75
2023-01-22T08:24:36.927Z,78.54
2023-01-22T08:27:05.465Z,85.15
2023-01-22T08:29:33.707Z,85.86
2023-01-22T08:32:02.075Z,88.48
2023-01-22T08:34:30.429Z,96.33
2023-01-22T08:36:58.718Z,94.59
2023-01-22T08:39:28.358Z,97.95
2023-01-22T08:41:57.714Z,93.84
2023-01-22T08:44:26.536Z,89.83
2023-01-22T08:46:54.787Z,81.10
2023-01-22T08:49:23.111Z,99.51
2023-01-22T08:51:51.403Z,94.22
2023-01-22T08:54:19.672Z,93.36
2023-01-22T08:56:49.470Z,94.43
2023-01-22T08:59:17.738Z,87.46
2023-01-22T09:01:45.996Z,81.80
2023-01-22T09:04:14.351Z,82.86
2023-01-22T09:06:42.642Z,83.73
2023-01-22T09:09:10.978Z,82.95
2023-01-22T09:11:39.795Z,81.31
2023-01-22T09:14:10.062Z,83.98
2023-01-22T09:16:38.460Z,88.79
2023-01-22T09:19:07.068Z,84.36
2023-01-22T09:21:37.365Z,78.17
2023-01-22T09:24:06.282Z,81.42
2023-01-22T09:26:34.700Z,77.55
2023-01-22T09:29:05.769Z,73.21
2023-01-22T09:31:36.547Z,67.76
2023-01-22T09:34:05.348Z,70.44
2023-01-22T09:36:33.669Z,73.14
2023-01-22T09:39:02.035Z,77.89
2023-01-22T09:41:34.122Z,84.26
2023-01-22T09:44:06.305Z,98.41
2023-01-22T09:46:39.113Z,85.26
2023-01-22T09:49:11.888Z,90.23
2023-01-22T09:51:40.228Z,83.84
2023-01-22T09:54:08.933Z,81.17
2023-01-22T09:56:41.753Z,88.54
2023-01-22T09:59:16.579Z,76.27
2023-01-22T10:01:47.570Z,86.02
2023-01-22T10:04:28.173Z,83.18
2023-01-22T10:06:56.507Z,85.44
2023-01-22T10:09:25.208Z,81.13
2023-01-22T10:11:55.372Z,82.09
2023-01-22T10:14:24.902Z,74.74
2023-01-22T10:16:54.781Z,77.12
2023-01-22T10:19:26.078Z,73.05
2023-01-22T10:21:57.811Z,71.06
2023-01-22T10:24:26.251Z,73.29
2023-01-22T10:26:56.239Z,74.20
2023-01-22T10:29:27.439Z,81.37
2023-01-22T10:31:58.780Z,83.84
2023-01-22T10:34:32.510Z,86.01
2023-01-22T10:37:02.419Z,80.77
2023-01-22T10:39:40.569Z,72.20
2023-01-22T10:42:15.299Z,72.80
2023-01-22T10:44:43.851Z,67.66
2023-01-22T10:47:20.760Z,72.68
2023-01-22T10:49:50.034Z,71.58
2023-01-22T10:52:23.535Z,68.10
2023-01-22T10:54:55.352Z,71.89
2023-01-22T10:57:26.993Z,70.73
2023-01-22T11:00:02.812Z,75.54
2023-01-22T11:02:35.348Z,69.27
2023-01-22T11:05:17.910Z,76.81
2023-01-22T11:07:47.727Z,73.91
2023-01-22T11:10:21.810Z,79.94
2023-01-22T11:12:52.557Z,82.08
2023-01-22T11:15:25.217Z,74.73
2023-01-22T11:17:57.252Z,70.97
2023-01-22T11:20:28.303Z,70.94
2023-01-22T11:23:04.895Z,70.54
2023-01-22T11:25:39.151Z,74.11
2023-01-22T11:28:15.369Z,72.09
2023-01-22T11:31:07.338Z,76.84
2023-01-22T11:33:52.634Z,72.53
2023-01-22T11:36:25.417Z,69.85
2023-01-22T11:38:56.493Z,76.27
2023-01-22T11:41:34.338Z,68.80
2023-01-22T11:44:34.205Z,71.81
2023-01-22T11:47:13.012Z,67.56
2023-01-22T11:49:50.983Z,67.23
2023-01-22T11:52:26.771Z,70.59
2023-01-22T11:55:05.565Z,77.52
2023-01-22T11:57:38.024Z,72.59
2023-01-22T12:00:31.610Z,73.14
2023-01-22T12:03:19.093Z,72.75
2023-01-22T12:05:53.231Z,70.34
2023-01-22T12:08:33.148Z,70.34
2023-01-22T12:11:13.508Z,71.75
2023-01-22T12:13:51.827Z,70.00
2023-01-22T12:16:24.900Z,64.50
2023-01-22T12:19:11.654Z,70.18
2023-01-22T12:21:51.446Z,71.06
2023-01-22T12:24:23.284Z,68.23
2023-01-22T12:26:56.515Z,63.26
2023-01-22T12:29:28.931Z,62.76
2023-01-22T12:32:01.244Z,62.19
2023-01-22T12:34:38.988Z,63.06
2023-01-22T12:37:10.776Z,66.12
2023-01-22T12:39:44.509Z,63.76
2023-01-22T12:42:17.955Z,64.85
2023-01-22T12:44:56.300Z,62.56
2023-01-22T12:47:29.459Z,63.52
2023-01-22T12:49:57.767Z,59.52
2023-01-22T12:52:33.785Z,58.22
2023-01-22T12:55:03.051Z,58.81
2023-01-22T12:57:40.216Z,55.77
2023-01-22T13:00:22.534Z,56.04
2023-01-22T13:02:51.153Z,56.02
2023-01-22T13:05:22.183Z,56.32
2023-01-22T13:08:03.145Z,61.36
2023-01-22T13:10:33.180Z,57.56
2023-01-22T13:13:03.632Z,59.11
2023-01-22T13:15:34.965Z,56.05
2023-01-22T13:18:07.527Z,56.20
2023-01-22T13:20:38.555Z,54.49
2023-01-22T13:23:08.260Z,54.18
2023-01-22T13:25:36.472Z,56.81
2023-01-22T13:28:04.893Z,58.07
2023-01-22T13:30:33.318Z,59.62
2023-01-22T13:33:06.542Z,58.72
2023-01-22T13:35:37.587Z,58.14
2023-01-22T13:38:05.863Z,58.52
2023-01-22T13:40:50.535Z,56.86
2023-01-22T13:43:21.069Z,55.33
2023-01-22T13:45:49.723Z,55.49
2023-01-22T13:48:19.393Z,55.26
2023-01-22T13:50:51.188Z,55.87
2023-01-22T13:53:28.688Z,55.83
2023-01-22T13:55:58.518Z,55.83
2023-01-22T13:58:49.271Z,59.06
2023-01-22T14:01:29.152Z,60.51
2023-01-22T14:04:02.027Z,60.60
2023-01-22T14:06:31.204Z,58.64
2023-01-22T14:08:59.691Z,58.79
2023-01-22T14:11:39.819Z,57.15
2023-01-22T14:14:16.940Z,58.13
2023-01-22T14:16:45.637Z,57.79
2023-01-22T14:19:14.075Z,58.66
2023-01-22T14:21:42.547Z,61.61
2023-01-22T14:24:10.865Z,62.40
2023-01-22T14:26:40.547Z,62.44
2023-01-22T14:29:08.986Z,61.62
2023-01-22T14:31:37.271Z,61.37
2023-01-22T14:34:05.875Z,60.69
2023-01-22T14:36:34.335Z,60.21
2023-01-22T14:39:02.570Z,59.23
2023-01-22T14:41:30.857Z,59.29
2023-01-22T14:44:02.940Z,57.04
2023-01-22T14:46:31.283Z,57.42
2023-01-22T14:49:01.804Z,56.93
2023-01-22T14:51:30.168Z,58.07
2023-01-22T14:53:58.990Z,60.77
2023-01-22T14:56:27.237Z,63.35
2023-01-22T14:58:55.505Z,65.04
2023-01-22T15:01:25.226Z,67.61
2023-01-22T15:03:54.201Z,64.95
2023-01-22T15:06:22.514Z,64.63
2023-01-22T15:08:50.862Z,69.14
2023-01-22T15:11:19.140Z,67.06
2023-01-22T15:13:47.535Z,75.32
2023-01-22T15:16:16.131Z,73.50
2023-01-22T15:18:46.630Z,71.39
2023-01-22T15:21:14.996Z,68.61
2023-01-22T15:23:43.256Z,74.00
2023-01-22T15:26:24.120Z,72.41
2023-01-22T15:28:52.457Z,74.86
2023-01-22T15:31:20.816Z,75.13
2023-01-22T15:33:50.800Z,76.87
2023-01-22T15:36:19.572Z,78.10
2023-01-22T15:38:47.823Z,83.75
2023-01-22T15:41:20.949Z,98.47
2023-01-22T15:43:51.003Z,100.00
2023-01-22T15:46:19.809Z,100.00
2023-01-22T15:48:49.842Z,100.00
2023-01-22T15:51:19.043Z,99.27
2023-01-22T15:53:49.725Z,92.27
2023-01-22T15:56:17.835Z,98.57
2023-01-22T15:58:46.091Z,100.00
2023-01-22T16:01:14.485Z,96.72
2023-01-22T16:03:42.886Z,96.56
2023-01-22T16:06:14.511Z,94.34
2023-01-22T16:08:45.719Z,93.25
2023-01-22T16:11:14.796Z,93.13
2023-01-22T16:13:43.490Z,98.42
2023-01-22T16:16:16.361Z,93.00
2023-01-22T16:18:44.950Z,86.51
2023-01-22T16:21:15.248Z,82.94
2023-01-22T16:23:45.921Z,85.91
2023-01-22T16:26:15.012Z,84.48
2023-01-22T16:28:43.842Z,89.63
2023-01-22T16:31:13.963Z,89.23
2023-01-22T16:33:44.185Z,100.00
2023-01-22T16:36:16.911Z,93.72
2023-01-22T16:38:45.426Z,89.80
2023-01-22T16:41:29.060Z,88.17
2023-01-22T16:44:00.949Z,87.66
2023-01-22T16:46:30.869Z,92.72
2023-01-22T16:49:01.323Z,94.29
2023-01-22T16:51:39.089Z,90.93
2023-01-22T16:54:08.182Z,96.35
2023-01-22T16:56:36.596Z,95.42
2023-01-22T16:59:04.977Z,94.85
2023-01-22T17:01:33.304Z,92.37
2023-01-22T17:04:01.693Z,90.20
2023-01-22T17:06:34.165Z,89.10
2023-01-22T17:09:02.460Z,100.00
2023-01-22T17:11:30.851Z,100.00
2023-01-22T17:14:00.396Z,100.00
2023-01-22T17:16:28.723Z,100.00
2023-01-22T17:18:59.114Z,100.00
2023-01-22T17:21:28.627Z,100.00
2023-01-22T17:23:58.606Z,100.00
2023-01-22T17:26:27.009Z,100.00
2023-01-22T17:28:55.591Z,100.00
2023-01-22T17:31:24.666Z,92.69
2023-01-22T17:33:55.351Z,87.06
2023-01-22T17:36:24.948Z,86.46
2023-01-22T17:38:53.656Z,86.53
2023-01-22T17:41:25.418Z,85.12
2023-01-22T17:43:56.014Z,85.37
2023-01-22T17:46:25.027Z,84.28
2023-01-22T17:48:53.779Z,86.65
2023-01-22T17:51:24.919Z,100.00
2023-01-22T17:53:54.648Z,100.00
2023-01-22T17:56:26.300Z,91.75
2023-01-22T17:58:57.583Z,86.35
2023-01-22T18:01:28.716Z,84.31
2023-01-22T18:03:57.707Z,93.26
2023-01-22T18:06:26.158Z,100.00
2023-01-22T18:08:54.864Z,100.00
2023-01-22T18:11:27.797Z,96.11
2023-01-22T18:13:57.622Z,82.52
2023-01-22T18:16:27.828Z,84.92
2023-01-22T18:18:57.014Z,84.72
2023-01-22T18:21:25.784Z,94.26
2023-01-22T18:23:54.140Z,98.23
2023-01-22T18:26:25.347Z,96.54
2023-01-22T18:28:55.949Z,93.86
2023-01-22T18:31:24.711Z,91.04
2023-01-22T18:33:54.510Z,93.54
2023-01-22T18:36:24.755Z,94.71
2023-01-22T18:38:53.346Z,87.30
2023-01-22T18:41:26.060Z,83.62
2023-01-22T18:43:56.107Z,91.43
2023-01-22T18:46:25.824Z,96.81
2023-01-22T18:48:55.521Z,100.00
2023-01-22T18:51:24.577Z,100.00
2023-01-22T18:53:53.038Z,100.00
2023-01-22T18:56:21.614Z,100.00
2023-01-22T18:58:51.301Z,100.00
2023-01-22T19:01:21.115Z,100.00
2023-01-22T19:03:52.333Z,100.00
2023-01-22T19:06:22.944Z,95.78
2023-01-22T19:08:54.377Z,95.76
2023-01-22T19:11:23.675Z,100.00
2023-01-22T19:13:55.592Z,97.89
2023-01-22T19:16:24.758Z,95.87
2023-01-22T19:18:55.976Z,94.59
2023-01-22T19:21:25.132Z,97.47
2023-01-22T19:23:55.064Z,100.00
2023-01-22T19:26:24.954Z,100.00
2023-01-22T19:28:56.161Z,100.00
2023-01-22T19:31:26.560Z,100.00
2023-01-22T19:33:56.465Z,100.00
2023-01-22T19:36:27.388Z,100.00
2023-01-22T19:38:56.428Z,100.00
2023-01-22T19:41:25.047Z,100.00
2023-01-22T19:43:54.879Z,100.00
2023-01-22T19:46:23.240Z,100.00
2023-01-22T19:48:51.557Z,100.00
2023-01-22T19:51:21.945Z,100.00
2023-01-22T19:53:50.556Z,100.00
2023-01-22T19:56:21.096Z,100.00
2023-01-22T19:58:49.528Z,100.00
2023-01-22T20:01:19.189Z,100.00
2023-01-22T20:03:47.868Z,100.00
2023-01-22T20:06:17.976Z,100.00
2023-01-22T20:08:46.519Z,100.00
2023-01-22T20:11:15.637Z,100.00
2023-01-22T20:13:44.173Z,100.00
2023-01-22T20:16:20.427Z,100.00
2023-01-22T20:18:49.302Z,100.00
2023-01-22T20:21:18.630Z,100.00
2023-01-22T20:23:47.962Z,100.00
2023-01-22T20:26:17.568Z,100.00
2023-01-22T20:28:46.460Z,100.00
2023-01-22T20:31:17.399Z,100.00
2023-01-22T20:33:47.398Z,100.00
2023-01-22T20:36:16.125Z,100.00
2023-01-22T20:38:45.867Z,100.00
2023-01-22T20:41:14.898Z,100.00
2023-01-22T20:43:44.912Z,100.00
2023-01-22T20:46:14.503Z,100.00
2023-01-22T20:48:43.258Z,100.00
2023-01-22T20:51:15.691Z,100.00
2023-01-22T20:53:44.821Z,99.59
2023-01-22T20:56:15.036Z,99.70
2023-01-22T20:58:43.930Z,100.00
2023-01-22T21:01:14.481Z,100.00
2023-01-22T21:03:43.514Z,96.90
2023-01-22T21:06:15.118Z,93.17
2023-01-22T21:08:44.388Z,91.67
2023-01-22T21:11:17.891Z,92.35
2023-01-22T21:13:46.663Z,89.86
2023-01-22T21:16:16.934Z,97.15
2023-01-22T21:18:46.647Z,100.00
2023-01-22T21:21:18.615Z,100.00
2023-01-22T21:23:48.204Z,100.00
2023-01-22T21:26:19.264Z,100.00
2023-01-22T21:28:48.315Z,100.00
2023-01-22T21:31:19.310Z,100.00
2023-01-22T21:33:48.690Z,100.00
2023-01-22T21:36:18.572Z,100.00
2023-01-22T21:38:47.731Z,100.00
2023-01-22T21:41:18.057Z,100.00
2023-01-22T21:44:05.639Z,100.00
2023-01-22T21:46:37.147Z,100.00
2023-01-22T21:49:16.310Z,100.00
2023-01-22T21:51:47.788Z,95.06
2023-01-22T21:54:17.930Z,91.61
2023-01-22T21:56:46.321Z,97.13
2023-01-22T21:59:15.109Z,97.03
2023-01-22T22:01:44.944Z,96.74
2023-01-22T22:04:15.022Z,90.35
2023-01-22T22:06:43.591Z,87.17
2023-01-22T22:09:16.562Z,90.94
2023-01-22T22:11:45.173Z,89.30
2023-01-22T22:14:15.796Z,88.62
2023-01-22T22:16:44.326Z,85.30
2023-01-22T22:19:13.091Z,87.24
2023-01-22T22:21:41.533Z,89.16
2023-01-22T22:24:10.680Z,90.53
2023-01-22T22:26:40.804Z,88.18
2023-01-22T22:29:10.141Z,88.97
2023-01-22T22:31:39.307Z,94.92
2023-01-22T22:34:08.034Z,91.73
2023-01-22T22:36:36.419Z,88.61
2023-01-22T22:39:06.504Z,87.88
2023-01-22T22:41:37.186Z,86.63
2023-01-22T22:44:07.823Z,93.56
2023-01-22T22:46:37.640Z,89.28
2023-01-22T22:49:06.544Z,86.44
2023-01-22T22:51:36.733Z,84.70
2023-01-22T22:54:07.769Z,87.92
2023-01-22T22:56:36.204Z,100.00
2023-01-22T22:59:06.351Z,94.27
2023-01-22T23:01:37.733Z,98.51
2023-01-22T23:04:07.071Z,98.57
2023-01-22T23:06:36.948Z,94.14
2023-01-22T23:09:06.778Z,94.65
2023-01-22T23:11:36.326Z,100.00
2023-01-22T23:14:07.283Z,100.00
2023-01-22T23:16:38.744Z,97.71
2023-01-22T23:19:09.123Z,98.35
2023-01-22T23:21:41.527Z,100.00
2023-01-22T23:24:10.283Z,100.00
2023-01-22T23:26:39.282Z,100.00
2023-01-22T23:29:10.437Z,100.00
2023-01-22T23:31:39.574Z,100.00
2023-01-22T23:34:09.844Z,100.00
2023-01-22T23:36:39.890Z,100.00
2023-01-22T23:39:08.245Z,100.00
2023-01-22T23:41:36.615Z,100.00
2023-01-22T23:44:05.634Z,100.00
2023-01-22T23:46:36.510Z,100.00
2023-01-22T23:49:05.736Z,100.00
2023-01-22T23:51:34.107Z,100.00
2023-01-22T23:54:02.505Z,100.00
2023-01-22T23:56:31.867Z,100.00
2023-01-22T23:59:00.741Z,100.00
